Latest Weather Observations for Cape Willoughby

IDS60801

Issued at 7:31 pm CDT Saturday 16 December 2017 (issued every 30 minutes, with the page automatically refreshed every 10 minutes)

About weather observations | Map of weather stations | Latest weather observations for SA | Other Formats
Station Details ID: 022803 Name: CAPE WILLOUGHBY Lat: -35.84 Lon: 138.13 Height: 55.0 m
Data from the previous 72 hours. | See also: Recent months at Cape Willoughby
Date/Time
CDT
Temp
°C
App
Temp
°C
Dew
Point
°C
Rel
Hum
%
Delta-T
°C
Wind Press
QNH
hPa
Press
MSL
hPa
Rain since
9am
mm
Dir  Spd
km/h
Gust
km/h
Spd
kts
Gust
kts
16/07:30pm 18.5 15.8 12.9 70 3.1 SE 19 24 10 13 1015.8 1015.7 0.0
16/07:00pm 19.1 16.3 13.3 69 3.3 SSE 20 26 11 14 1015.5 1015.4 0.0
16/06:30pm 19.1 16.4 12.8 67 3.5 SE 19 24 10 13 1015.4 1015.3 0.0
16/06:00pm 19.9 17.2 13.4 66 3.7 SE 20 24 11 13 1015.0 1014.9 0.0
16/05:30pm 20.5 18.6 13.0 62 4.3 SE 15 19 8 10 1015.2 1015.1 0.0
16/05:00pm 20.2 18.3 12.9 63 4.1 SE 15 19 8 10 1015.2 1015.1 0.0
16/04:30pm 20.0 17.9 12.5 62 4.2 SE 15 19 8 10 1015.3 1015.2 0.0
16/04:00pm 21.3 19.4 13.0 59 4.7 SE 15 20 8 11 1015.3 1015.2 0.0
16/03:30pm 21.6 19.9 13.5 60 4.7 SE 15 19 8 10 1015.4 1015.3 0.0
16/03:00pm 21.2 19.3 12.9 59 4.7 SE 15 19 8 10 1015.8 1015.7 0.0
16/02:30pm 21.0 19.4 13.9 64 4.1 SE 15 20 8 11 1015.9 1015.8 0.0
16/02:00pm 20.5 18.8 13.7 65 3.9 SE 15 19 8 10 1016.0 1015.9 0.0
16/01:30pm 19.0 17.2 13.4 70 3.2 SSE 15 19 8 10 1016.2 1016.1 0.0
16/01:00pm 19.0 17.7 13.6 71 3.1 SSE 13 17 7 9 1016.4 1016.3 0.0
16/12:30pm 19.3 18.4 13.7 70 3.2 SSE 11 17 6 9 1016.6 1016.5 0.0
16/12:00pm 19.1 18.6 13.7 71 3.1 SSE 9 11 5 6 1016.8 1016.7 0.0
16/11:30am 18.9 18.5 14.2 74 2.7 SSE 9 11 5 6 1016.6 1016.5 0.0
16/11:00am 19.1 18.8 14.4 74 2.7 SSE 9 13 5 7 1016.7 1016.6 0.0
16/10:30am 18.4 18.1 14.3 77 2.4 S 9 13 5 7 1016.5 1016.4 0.0
16/10:00am 18.1 16.9 14.0 77 2.3 S 13 17 7 9 1016.5 1016.4 0.0
16/09:30am 18.8 18.6 14.7 77 2.4 S 9 13 5 7 1016.3 1016.2 0.0
16/09:00am 17.9 17.3 13.6 76 2.4 S 9 13 5 7 1016.3 1016.2 0.0
16/08:30am 17.8 17.9 13.9 78 2.2 S 6 11 3 6 1016.0 1015.9 0.0
16/08:00am 17.6 18.1 13.9 79 2.1 SSW 4 7 2 4 1015.7 1015.6 0.0
16/07:30am 16.6 16.6 14.2 86 1.4 W 7 9 4 5 1015.6 1015.5 0.0
16/07:00am 15.6 15.3 13.4 87 1.2 W 7 9 4 5 1015.1 1015.0 0.0
16/06:30am 15.4 14.7 13.2 87 1.2 WSW 9 9 5 5 1014.6 1014.5 0.0
16/06:00am 15.2 14.5 13.1 87 1.2 WSW 9 11 5 6 1014.1 1014.0 0.0
16/05:30am 15.2 14.1 13.2 88 1.1 SW 11 11 6 6 1013.8 1013.7 0.0
16/05:00am 15.1 14.0 13.0 87 1.2 WSW 11 11 6 6 1013.5 1013.4 0.0
16/04:30am 15.2 13.6 12.9 86 1.3 WSW 13 15 7 8 1013.5 1013.4 0.0
16/04:00am 15.2 13.6 12.9 86 1.3 WSW 13 13 7 7 1013.6 1013.5 0.0
16/03:30am 15.2 13.6 12.7 85 1.4 WSW 13 15 7 8 1013.6 1013.5 0.0
16/03:00am 15.5 13.2 13.0 85 1.4 WSW 17 19 9 10 1013.7 1013.6 0.0
16/02:30am 15.2 13.5 12.3 83 1.6 W 13 17 7 9 1013.6 1013.5 0.0
16/02:00am 15.3 13.2 12.4 83 1.6 W 15 15 8 8 1013.8 1013.7 0.0
16/01:30am 15.6 14.0 12.7 83 1.6 WSW 13 17 7 9 1013.7 1013.6 0.0
16/01:00am 15.6 13.6 12.7 83 1.6 WSW 15 17 8 9 1013.8 1013.7 0.0
16/12:30am 15.8 13.9 12.9 83 1.6 WSW 15 17 8 9 1013.9 1013.8 0.0
16/12:00am 16.1 14.2 13.0 82 1.7 WSW 15 17 8 9 1014.0 1013.9 0.0
 
Date/Time
CDT
Temp
°C
App
Temp
°C
Dew
Point
°C
Rel
Hum
%
Delta-T
°C
Wind Press
QNH
hPa
Press
MSL
hPa
Rain since
9am
mm
Dir  Spd
km/h
Gust
km/h
Spd
kts
Gust
kts
15/11:30pm 16.6 14.9 13.5 82 1.7 WSW 15 20 8 11 1014.2 1014.1 0.0
15/11:00pm 16.9 15.1 13.4 80 2.0 SW 15 19 8 10 1014.3 1014.2 0.0
15/10:30pm 17.4 14.4 13.7 79 2.1 SW 22 30 12 16 1014.2 1014.1 0.0
15/10:00pm 17.4 13.8 12.9 75 2.5 SSW 24 28 13 15 1013.7 1013.6 0.0
15/09:30pm 17.3 14.0 12.8 75 2.5 SSW 22 28 12 15 1013.3 1013.2 0.0
15/09:00pm 17.6 14.3 12.9 74 2.6 SSW 22 28 12 15 1013.2 1013.1 0.0
15/08:30pm 17.8 16.0 12.0 69 3.2 SSW 13 20 7 11 1013.0 1012.9 0.0
15/08:00pm 17.9 15.9 12.6 71 3.0 SSW 15 20 8 11 1013.0 1012.9 0.0
15/07:30pm 18.2 14.7 12.2 68 3.3 SSW 22 26 12 14 1012.8 1012.7 0.0
15/07:00pm 18.8 15.9 11.1 61 4.2 SSW 17 24 9 13 1012.5 1012.4 0.0
15/06:30pm 18.3 15.7 10.7 61 4.1 S 15 20 8 11 1012.3 1012.2 0.0
15/06:00pm 19.4 16.7 10.4 56 4.9 SSW 15 22 8 12 1012.2 1012.1 0.0
15/05:30pm 18.7 16.2 11.0 61 4.2 S 15 22 8 12 1012.2 1012.1 0.0
15/05:00pm 18.6 15.4 11.2 62 4.0 S 19 22 10 12 1012.3 1012.2 0.0
15/04:30pm 18.5 15.3 11.3 63 3.9 S 19 22 10 12 1012.3 1012.2 0.0
15/04:00pm 20.3 18.1 9.2 49 5.9 N 11 17 6 9 1012.1 1012.0 0.0
15/03:30pm 21.8 17.9 8.7 43 7.0 N 19 22 10 12 1012.0 1011.9 0.0
15/03:00pm 22.5 18.1 10.3 46 6.7 N 24 30 13 16 1012.2 1012.1 0.0
15/02:30pm 22.5 17.7 10.3 46 6.7 N 26 30 14 16 1012.4 1012.3 0.0
15/02:00pm 22.7 17.9 8.8 41 7.4 N 24 28 13 15 1012.6 1012.5 0.0
15/01:30pm 21.7 16.8 8.6 43 6.9 N 24 28 13 15 1012.9 1012.8 0.0
15/01:00pm 21.7 18.2 10.8 50 6.0 N 20 26 11 14 1013.3 1013.2 0.0
15/12:30pm 19.6 17.3 11.6 60 4.4 N 15 19 8 10 1013.5 1013.4 0.0
15/12:00pm 19.0 17.2 12.0 64 3.9 N 13 17 7 9 1013.8 1013.7 0.0
15/11:30am 19.5 17.4 12.3 63 4.0 N 15 19 8 10 1013.8 1013.7 0.0
15/11:00am 18.3 16.2 11.1 63 3.9 N 13 17 7 9 1013.8 1013.7 0.0
15/10:30am 18.5 16.8 11.3 63 3.9 NNE 11 15 6 8 1014.0 1013.9 0.0
15/10:00am 18.6 17.5 11.9 65 3.7 NNE 9 13 5 7 1014.1 1014.0 0.0
15/09:30am 19.0 18.5 12.5 66 3.6 ENE 7 9 4 5 1014.2 1014.1 0.0
15/09:00am 17.4 16.9 10.8 65 3.5 E 4 6 2 3 1014.3 1014.2 0.0
15/08:30am 18.3 17.5 11.1 63 3.9 E 6 9 3 5 1014.2 1014.1 0.0
15/08:00am 17.6 16.9 11.4 67 3.4 S 6 6 3 3 1014.2 1014.1 0.0
15/07:30am 17.1 16.8 11.6 70 3.0 SSE 4 6 2 3 1014.1 1014.0 0.0
15/07:00am 16.1 16.3 11.7 75 2.4 S 2 4 1 2 1013.9 1013.8 0.0
15/06:30am 15.8 15.0 11.2 74 2.5 S 6 9 3 5 1013.8 1013.7 0.0
15/06:00am 15.4 14.6 11.0 75 2.3 SSW 6 7 3 4 1013.5 1013.4 0.0
15/05:30am 15.5 14.7 10.9 74 2.5 SSW 6 7 3 4 1013.2 1013.1 0.0
15/05:00am 15.7 14.9 10.9 73 2.6 S 6 9 3 5 1013.0 1012.9 0.0
15/04:30am 15.9 14.9 11.1 73 2.6 S 7 13 4 7 1012.8 1012.7 0.0
15/04:00am 15.9 14.1 10.9 72 2.7 S 11 15 6 8 1012.8 1012.7 0.0
15/03:30am 15.9 13.6 10.4 70 2.9 S 13 17 7 9 1012.9 1012.8 0.0
15/03:00am 15.9 12.8 10.2 69 3.0 SSE 17 20 9 11 1013.0 1012.9 0.0
15/02:30am 16.0 13.1 11.0 72 2.7 S 17 20 9 11 1013.2 1013.1 0.0
15/02:00am 16.1 12.7 11.1 72 2.7 S 20 24 11 13 1013.4 1013.3 0.0
15/01:30am 16.2 13.1 11.6 74 2.5 S 19 26 10 14 1013.6 1013.5 0.0
15/01:00am 16.3 13.8 11.0 71 2.8 S 15 19 8 10 1014.0 1013.9 0.0
15/12:30am 16.3 13.6 10.4 68 3.1 S 15 19 8 10 1014.1 1014.0 0.0
15/12:00am 16.4 13.4 10.5 68 3.1 S 17 19 9 10 1014.2 1014.1 0.0
 
Date/Time
CDT
Temp
°C
App
Temp
°C
Dew
Point
°C
Rel
Hum
%
Delta-T
°C
Wind Press
QNH
hPa
Press
MSL
hPa
Rain since
9am
mm
Dir  Spd
km/h
Gust
km/h
Spd
kts
Gust
kts
14/11:30pm 16.4 12.8 10.0 66 3.4 S 19 22 10 12 1014.3 1014.2 0.0
14/11:00pm 16.5 13.0 10.1 66 3.4 S 19 24 10 13 1014.4 1014.3 0.0
14/10:30pm 16.4 12.7 10.0 66 3.4 S 20 26 11 14 1014.4 1014.3 0.0
14/10:00pm 16.4 13.3 10.3 67 3.2 S 17 20 9 11 1014.3 1014.2 0.0
14/09:30pm 16.5 13.2 10.8 69 3.0 S 19 24 10 13 1014.2 1014.1 0.0
14/09:00pm 16.6 13.2 10.5 67 3.2 S 19 22 10 12 1014.2 1014.1 0.0
14/08:30pm 16.7 13.7 10.8 68 3.2 S 17 20 9 11 1014.0 1013.9 0.0
14/08:00pm 16.7 13.6 10.3 66 3.4 S 17 24 9 13 1013.6 1013.5 0.0
14/07:30pm 16.9 13.6 11.0 68 3.2 S 19 24 10 13 1013.4 1013.3 0.0
14/07:00pm 17.1 13.7 10.7 66 3.4 S 19 24 10 13 1013.0 1012.9 0.0
14/06:30pm 17.4 14.2 11.4 68 3.3 S 19 26 10 14 1012.7 1012.6 0.0
14/06:00pm 17.6 14.4 11.4 67 3.4 S 19 24 10 13 1012.7 1012.6 0.0
14/05:30pm 17.9 14.9 12.4 70 3.1 S 20 26 11 14 1012.6 1012.5 0.0
14/05:00pm 17.7 14.3 12.4 71 2.9 S 22 30 12 16 1012.6 1012.5 0.0
14/04:30pm 18.1 15.7 12.5 70 3.1 S 17 24 9 13 1012.8 1012.7 0.0
14/04:00pm 18.4 15.8 13.1 71 3.0 S 19 28 10 15 1012.8 1012.7 0.0
14/03:30pm 18.4 15.3 12.2 67 3.4 S 20 26 11 14 1012.6 1012.5 0.0
14/03:00pm 19.1 15.9 11.9 63 4.0 S 20 26 11 14 1012.3 1012.2 0.0
14/02:30pm 18.4 15.1 11.7 65 3.7 S 20 24 11 13 1012.4 1012.3 0.0
14/02:00pm 18.3 15.4 10.9 62 4.0 S 17 22 9 12 1012.5 1012.4 0.0
14/01:30pm 18.4 15.9 11.2 63 3.9 S 15 20 8 11 1012.8 1012.7 0.0
14/01:00pm 19.0 17.2 12.0 64 3.9 S 13 17 7 9 1012.9 1012.8 0.0
14/12:30pm 18.5 16.9 11.6 64 3.8 S 11 15 6 8 1012.9 1012.8 0.0
14/12:00pm 17.9 15.9 11.5 66 3.5 S 13 17 7 9 1012.7 1012.6 0.0
14/11:30am 17.8 15.4 11.4 66 3.5 S 15 20 8 11 1012.7 1012.6 0.0
14/11:00am 17.7 15.1 11.9 69 3.2 S 17 24 9 13 1012.6 1012.5 0.0
14/10:30am 17.5 15.1 11.3 67 3.4 S 15 24 8 13 1012.6 1012.5 0.0
14/10:00am 17.4 14.4 11.9 70 3.0 S 19 26 10 14 1012.5 1012.4 0.0
14/09:30am 17.3 14.6 11.8 70 3.0 S 17 28 9 15 1012.1 1012.0 0.0
14/09:00am 17.0 13.9 11.7 71 2.9 SSW 19 28 10 15 1011.5 1011.4 0.0
14/08:30am 16.9 12.3 12.2 74 2.6 SSW 28 39 15 21 1011.1 1011.0 0.0
14/08:00am 16.6 12.2 12.9 79 2.1 SSW 28 37 15 20 1011.0 1010.9 0.0
14/07:30am 16.8 14.1 12.9 78 2.2 SW 19 24 10 13 1010.6 1010.5 0.0
14/07:00am 16.6 14.0 13.3 81 1.9 SW 19 26 10 14 1010.1 1010.0 0.0
14/06:30am 16.4 12.7 13.9 85 1.4 SW 26 33 14 18 1009.5 1009.4 0.0
14/06:00am 16.2 13.8 14.4 89 1.0 SW 20 26 11 14 1009.1 1009.0 0.0
14/05:30am 15.9 12.4 14.6 92 0.7 SSW 26 33 14 18 1008.7 1008.6 0.0
14/05:00am 16.2 12.5 15.1 93 0.6 SSW 28 35 15 19 1008.0 1007.9 0.0
14/04:30am 16.4 12.4 15.3 93 0.6 SSW 30 41 16 22 1007.7 1007.6 0.0
14/04:00am 17.1 13.2 15.6 91 0.9 SSW 30 39 16 21 1007.2 1007.1 0.0
14/03:30am 17.0 13.1 15.5 91 0.9 SSW 30 39 16 21 1007.0 1006.9 0.0
14/03:00am 17.4 13.9 15.6 89 1.1 SSW 28 37 15 20 1006.8 1006.7 0.0
14/02:30am 17.5 13.2 15.8 90 1.0 SSW 33 44 18 24 1006.8 1006.7 0.0
14/02:00am 17.4 12.5 15.4 88 1.2 SSW 35 43 19 23 1007.1 1007.0 0.0
14/01:30am 17.4 13.5 15.6 89 1.1 SSW 30 37 16 20 1007.3 1007.2 0.0
14/01:00am 17.6 13.4 15.8 89 1.1 SSW 32 43 17 23 1007.5 1007.4 0.0
14/12:30am 17.6 12.8 15.6 88 1.2 SW 35 43 19 23 1007.3 1007.2 0.0
14/12:00am 17.6 12.9 15.8 89 1.1 SW 35 43 19 23 1007.4 1007.3 0.0
 
Date/Time
CDT
Temp
°C
App
Temp
°C
Dew
Point
°C
Rel
Hum
%
Delta-T
°C
Wind Press
QNH
hPa
Press
MSL
hPa
Rain since
9am
mm
Dir  Spd
km/h
Gust
km/h
Spd
kts
Gust
kts
13/11:30pm 17.8 14.5 16.1 90 1.0 SW 28 35 15 19 1007.3 1007.2 0.0
13/11:00pm 17.9 15.4 16.1 89 1.1 WSW 24 32 13 17 1007.3 1007.2 0.0
13/10:30pm 18.1 14.1 16.1 88 1.2 SW 32 39 17 21 1007.0 1006.9 0.0
13/10:00pm 18.4 15.6 16.4 88 1.2 SW 26 32 14 17 1007.2 1007.1 0.0
13/09:30pm 18.7 16.2 16.1 85 1.6 SW 24 30 13 16 1007.2 1007.1 0.0
13/09:00pm 19.1 15.8 16.1 83 1.8 SW 28 32 15 17 1006.8 1006.7 0.0
13/08:30pm 19.9 18.4 16.7 82 1.9 SW 20 28 11 15 1006.5 1006.4 0.0
13/08:00pm 20.4 19.5 16.8 80 2.2 SW 17 20 9 11 1006.2 1006.1 0.0

Other Formats:

Comma delimited format used in spreadsheet applications
http://www.bom.gov.au/fwo/IDS60801/IDS60801.94822.axf

JavaScript Object Notation format (JSON) in row-major order
http://www.bom.gov.au/fwo/IDS60801/IDS60801.94822.json